createdAt,value
2023-02-11T00:01:32.943Z,96430.91
2023-02-11T00:04:00.607Z,96415.63
2023-02-11T00:06:30.347Z,96408.78
2023-02-11T00:08:57.521Z,96424.19
2023-02-11T00:11:26.628Z,96427.72
2023-02-11T00:13:53.435Z,96410.69
2023-02-11T00:16:21.359Z,96414.22
2023-02-11T00:18:50.383Z,96404.09
2023-02-11T00:21:21.664Z,96413.50
2023-02-11T00:23:49.259Z,96411.03
2023-02-11T00:26:24.182Z,96400.06
2023-02-11T00:28:52.446Z,96401.94
2023-02-11T00:31:21.182Z,96400.19
2023-02-11T00:33:48.196Z,96415.72
2023-02-11T00:36:18.775Z,96413.38
2023-02-11T00:38:46.709Z,96414.38
2023-02-11T00:41:14.431Z,96409.25
2023-02-11T00:43:41.958Z,96410.22
2023-02-11T00:46:09.784Z,96423.91
2023-02-11T00:48:36.836Z,96416.34
2023-02-11T00:51:04.370Z,96420.63
2023-02-11T00:53:32.398Z,96430.81
2023-02-11T00:55:59.160Z,96427.56
2023-02-11T00:58:25.915Z,96425.09
2023-02-11T01:00:54.329Z,96433.88
2023-02-11T01:03:21.213Z,96444.16
2023-02-11T01:05:48.147Z,96444.94
2023-02-11T01:08:15.053Z,96445.84
2023-02-11T01:10:41.835Z,96443.31
2023-02-11T01:13:08.573Z,96439.94
2023-02-11T01:15:35.362Z,96437.19
2023-02-11T01:18:02.402Z,96440.59
2023-02-11T01:20:29.744Z,96415.03
2023-02-11T01:22:56.471Z,96427.78
2023-02-11T01:25:23.281Z,96420.88
2023-02-11T01:27:50.040Z,96423.63
2023-02-11T01:30:16.766Z,96431.41
2023-02-11T01:32:43.587Z,96423.59
2023-02-11T01:35:10.349Z,96415.81
2023-02-11T01:37:37.156Z,96422.69
2023-02-11T01:40:12.536Z,96412.53
2023-02-11T01:42:39.629Z,96412.47
2023-02-11T01:45:47.298Z,96408.09
2023-02-11T01:48:29.747Z,96399.56
2023-02-11T01:51:17.467Z,96388.66
2023-02-11T01:54:04.659Z,96398.91
2023-02-11T01:56:50.300Z,96402.25
2023-02-11T01:59:29.316Z,96404.06
2023-02-11T02:02:01.222Z,96399.75
2023-02-11T02:04:33.565Z,96396.53
2023-02-11T02:07:07.073Z,96394.03
2023-02-11T02:09:42.243Z,96372.78
2023-02-11T02:12:09.009Z,96362.41
2023-02-11T02:14:40.593Z,96360.66
2023-02-11T02:17:29.845Z,96370.91
2023-02-11T02:20:49.626Z,96360.94
2023-02-11T02:23:25.146Z,96369.44
2023-02-11T02:28:56.300Z,96359.28
2023-02-11T02:32:04.534Z,96356.72
2023-02-11T02:34:48.238Z,96343.09
2023-02-11T02:37:33.411Z,96335.44
2023-02-11T02:40:07.206Z,96335.44
2023-02-11T02:42:34.457Z,96327.75
2023-02-11T02:45:01.344Z,96320.88
2023-02-11T02:47:28.199Z,96336.19
2023-02-11T02:49:54.944Z,96314.13
2023-02-11T02:52:53.835Z,96343.13
2023-02-11T02:55:45.456Z,96338.94
2023-02-11T02:58:30.605Z,96323.78
2023-02-11T03:01:43.200Z,96327.03
2023-02-11T03:04:53.016Z,96329.84
2023-02-11T03:08:02.787Z,96328.25
2023-02-11T03:10:35.701Z,96328.09
2023-02-11T03:13:04.727Z,96333.28
2023-02-11T03:15:40.001Z,96322.31
2023-02-11T03:18:13.224Z,96334.19
2023-02-11T03:20:42.647Z,96331.66
2023-02-11T03:23:19.848Z,96335.81
2023-02-11T03:26:03.377Z,96327.31
2023-02-11T03:28:40.214Z,96328.25
2023-02-11T03:31:12.219Z,96327.41
2023-02-11T03:33:48.613Z,96338.41
2023-02-11T03:36:24.507Z,96338.38
2023-02-11T03:38:57.252Z,96340.03
2023-02-11T03:41:25.329Z,96318.72
2023-02-11T03:43:58.495Z,96323.03
2023-02-11T03:46:34.527Z,96329.84
2023-02-11T03:49:09.944Z,96334.06
2023-02-11T03:51:38.267Z,96327.41
2023-02-11T03:54:11.333Z,96320.47
2023-02-11T03:56:49.264Z,96308.59
2023-02-11T03:59:15.992Z,96303.41
2023-02-11T04:01:42.766Z,96316.94
2023-02-11T04:04:09.653Z,96316.03
2023-02-11T04:06:36.509Z,96308.41
2023-02-11T04:09:03.327Z,96308.31
2023-02-11T04:11:30.040Z,96311.78
2023-02-11T04:13:56.782Z,96316.84
2023-02-11T04:16:23.691Z,96316.91
2023-02-11T04:18:50.427Z,96316.94
2023-02-11T04:21:17.284Z,96337.44
2023-02-11T04:23:44.079Z,96327.28
2023-02-11T04:26:10.814Z,96334.91
2023-02-11T04:28:37.584Z,96339.28
2023-02-11T04:31:04.585Z,96343.59
2023-02-11T04:33:31.380Z,96346.19
2023-02-11T04:35:58.165Z,96348.72
2023-02-11T04:38:24.929Z,96359.78
2023-02-11T04:40:51.690Z,96366.53
2023-02-11T04:43:18.463Z,96375.16
2023-02-11T04:45:45.241Z,96364.91
2023-02-11T04:48:11.964Z,96363.88
2023-02-11T04:50:38.668Z,96372.38
2023-02-11T04:53:05.395Z,96371.59
2023-02-11T04:55:32.107Z,96359.59
2023-02-11T04:57:58.862Z,96353.66
2023-02-11T05:00:25.635Z,96348.47
2023-02-11T05:02:52.401Z,96345.72
2023-02-11T05:05:19.180Z,96356.06
2023-02-11T05:07:45.976Z,96350.94
2023-02-11T05:10:12.704Z,96344.09
2023-02-11T05:12:39.474Z,96334.72
2023-02-11T05:15:06.685Z,96347.59
2023-02-11T05:17:33.415Z,96339.09
2023-02-11T05:20:00.186Z,96332.22
2023-02-11T05:22:26.925Z,96332.22
2023-02-11T05:24:53.633Z,96328.03
2023-02-11T05:27:20.412Z,96323.72
2023-02-11T05:29:47.145Z,96315.97
2023-02-11T05:32:13.925Z,96324.53
2023-02-11T05:34:40.683Z,96328.78
2023-02-11T05:37:07.430Z,96317.75
2023-02-11T05:39:34.206Z,96315.19
2023-02-11T05:42:00.982Z,96309.28
2023-02-11T05:44:27.693Z,96317.69
2023-02-11T05:46:54.423Z,96323.72
2023-02-11T05:49:21.169Z,96315.16
2023-02-11T05:51:47.903Z,96315.91
2023-02-11T05:54:14.798Z,96329.63
2023-02-11T05:56:44.426Z,96329.75
2023-02-11T05:59:15.000Z,96319.41
2023-02-11T06:01:42.689Z,96310.06
2023-02-11T06:04:09.565Z,96292.16
2023-02-11T06:06:36.488Z,96294.78
2023-02-11T06:09:03.789Z,96287.94
2023-02-11T06:11:30.534Z,96298.91
2023-02-11T06:13:57.281Z,96279.28
2023-02-11T06:16:24.036Z,96287.81
2023-02-11T06:18:50.828Z,96296.34
2023-02-11T06:21:17.634Z,96300.56
2023-02-11T06:23:44.538Z,96301.66
2023-02-11T06:26:19.823Z,96282.81
2023-02-11T06:28:47.021Z,96293.84
2023-02-11T06:31:14.715Z,96294.56
2023-02-11T06:33:41.875Z,96291.97
2023-02-11T06:36:18.497Z,96282.56
2023-02-11T06:38:46.673Z,96291.19
2023-02-11T06:41:16.054Z,96286.75
2023-02-11T06:43:43.625Z,96290.94
2023-02-11T06:46:10.429Z,96278.94
2023-02-11T06:48:37.594Z,96290.78
2023-02-11T06:51:10.219Z,96283.91
2023-02-11T06:53:45.995Z,96282.16
2023-02-11T06:56:22.495Z,96300.00
2023-02-11T06:58:55.549Z,96330.56
2023-02-11T07:01:24.681Z,96327.06
2023-02-11T07:03:51.520Z,96324.69
2023-02-11T07:06:23.136Z,96347.72
2023-02-11T07:08:49.947Z,96344.22
2023-02-11T07:11:26.756Z,96347.59
2023-02-11T07:13:56.915Z,96351.81
2023-02-11T07:16:24.139Z,96354.97
2023-02-11T07:18:50.900Z,96343.69
2023-02-11T07:21:21.123Z,96351.19
2023-02-11T07:23:48.841Z,96345.94
2023-02-11T07:26:19.628Z,96330.41
2023-02-11T07:28:46.984Z,96338.59
2023-02-11T07:31:18.651Z,96324.03
2023-02-11T07:33:48.663Z,96333.09
2023-02-11T07:36:16.701Z,96327.81
2023-02-11T07:38:44.143Z,96325.88
2023-02-11T07:41:14.467Z,96335.00
2023-02-11T07:43:41.755Z,96335.81
2023-02-11T07:46:19.101Z,96340.63
2023-02-11T07:48:46.794Z,96325.91
2023-02-11T07:51:20.408Z,96320.63
2023-02-11T07:53:47.590Z,96321.44
2023-02-11T07:56:16.517Z,96328.91
2023-02-11T07:58:44.281Z,96343.31
2023-02-11T08:01:25.520Z,96351.56
2023-02-11T08:03:53.308Z,96341.00
2023-02-11T08:06:23.150Z,96331.59
2023-02-11T08:08:50.737Z,96334.72
2023-02-11T08:11:26.813Z,96325.19
2023-02-11T08:13:55.428Z,96323.94
2023-02-11T08:16:32.007Z,96313.44
2023-02-11T08:19:02.333Z,96321.75
2023-02-11T08:21:29.529Z,96312.94
2023-02-11T08:26:27.836Z,96282.59
2023-02-11T08:28:56.920Z,96286.56
2023-02-11T08:31:31.052Z,96289.72
2023-02-11T08:34:02.426Z,96279.41
2023-02-11T08:36:36.192Z,96292.03
2023-02-11T08:39:18.604Z,96300.28
2023-02-11T08:41:52.006Z,96290.72
2023-02-11T08:44:21.355Z,96291.06
2023-02-11T08:46:49.479Z,96299.59
2023-02-11T08:49:16.762Z,96299.13
2023-02-11T08:51:44.268Z,96295.72
2023-02-11T08:54:11.712Z,96297.31
2023-02-11T08:56:39.306Z,96293.78
2023-02-11T08:59:07.339Z,96288.38
2023-02-11T09:01:34.250Z,96301.75
2023-02-11T09:04:01.426Z,96296.25
2023-02-11T09:06:29.244Z,96295.25
2023-02-11T09:08:58.200Z,96312.84
2023-02-11T09:11:35.306Z,96318.53
2023-02-11T09:14:04.259Z,96309.94
2023-02-11T10:32:16.398Z,96276.22
2023-02-11T10:34:43.235Z,96271.06
2023-02-11T10:37:14.096Z,96269.53
2023-02-11T10:39:41.662Z,96276.84
2023-02-11T10:42:13.290Z,96261.03
2023-02-11T10:44:59.981Z,96265.28
2023-02-11T10:47:36.875Z,96266.31
2023-02-11T10:50:28.295Z,96259.78
2023-02-11T10:53:22.387Z,96251.97
2023-02-11T10:56:00.063Z,96251.69
2023-02-11T10:58:32.045Z,96230.13
2023-02-11T11:01:01.281Z,96226.34
2023-02-11T11:03:50.538Z,96224.63
2023-02-11T11:06:33.296Z,96201.81
2023-02-11T11:09:00.190Z,96211.94
2023-02-11T11:11:27.755Z,96227.44
2023-02-11T11:13:54.428Z,96217.19
2023-02-11T11:16:24.460Z,96222.19
2023-02-11T11:19:11.180Z,96215.72
2023-02-11T11:21:54.870Z,96180.88
2023-02-11T11:24:40.241Z,96196.13
2023-02-11T11:27:07.285Z,96189.50
2023-02-11T11:29:52.388Z,96202.56
2023-02-11T11:32:29.481Z,96208.94
2023-02-11T11:35:02.776Z,96199.31
2023-02-11T11:37:32.837Z,96215.34
2023-02-11T11:40:20.934Z,96201.41
2023-02-11T11:43:14.203Z,96209.66
2023-02-11T11:45:58.175Z,96203.78
2023-02-11T11:48:38.570Z,96212.72
2023-02-11T11:51:11.667Z,96196.03
2023-02-11T11:53:53.249Z,96200.09
2023-02-11T11:56:27.198Z,96211.13
2023-02-11T11:58:54.565Z,96182.25
2023-02-11T12:01:49.443Z,96199.91
2023-02-11T12:04:34.908Z,96190.84
2023-02-11T12:07:31.338Z,96181.66
2023-02-11T12:10:31.675Z,96172.69
2023-02-11T12:13:31.510Z,96174.81
2023-02-11T12:16:31.733Z,96172.34
2023-02-11T12:19:38.858Z,96173.91
2023-02-11T12:22:26.645Z,96173.31
2023-02-11T12:25:35.839Z,96166.13
2023-02-11T12:28:39.466Z,96155.00
2023-02-11T12:31:31.510Z,96162.03
2023-02-11T12:34:05.284Z,96161.41
2023-02-11T12:36:40.864Z,96161.69
2023-02-11T12:39:39.440Z,96162.53
2023-02-11T12:42:56.930Z,96154.75
2023-02-11T12:46:02.740Z,96148.91
2023-02-11T12:49:19.335Z,96143.75
2023-02-11T12:52:08.800Z,96142.00
2023-02-11T12:55:11.879Z,96141.66
2023-02-11T12:57:42.022Z,96124.75
2023-02-11T13:00:23.731Z,96141.00
2023-02-11T13:03:01.393Z,96119.91
2023-02-11T13:05:34.775Z,96134.88
2023-02-11T13:08:35.957Z,96124.63
2023-02-11T13:11:08.029Z,96116.31
2023-02-11T13:13:54.015Z,96129.91
2023-02-11T13:16:37.214Z,96131.31
2023-02-11T13:19:04.016Z,96125.03
2023-02-11T13:21:38.551Z,96117.41
2023-02-11T13:24:38.478Z,96119.22
2023-02-11T13:27:26.535Z,96123.50
2023-02-11T13:30:34.690Z,96117.13
2023-02-11T13:33:01.439Z,96122.13
2023-02-11T13:35:29.884Z,96118.78
2023-02-11T13:37:58.413Z,96112.69
2023-02-11T13:40:33.726Z,96121.16
2023-02-11T13:43:03.859Z,96096.31
2023-02-11T13:45:48.148Z,96120.44
2023-02-11T13:48:24.717Z,96094.38
2023-02-11T13:50:59.692Z,96105.63
2023-02-11T13:53:27.803Z,96115.16
2023-02-11T13:56:10.090Z,96116.25
2023-02-11T13:58:47.699Z,96119.56
2023-02-11T14:02:23.378Z,96119.69
2023-02-11T14:05:24.520Z,96125.41
2023-02-11T14:08:28.057Z,96119.66
2023-02-11T14:10:58.904Z,96118.38
2023-02-11T14:13:30.569Z,96115.78
2023-02-11T14:16:13.673Z,96126.13
2023-02-11T14:18:49.670Z,96121.56
2023-02-11T14:21:23.114Z,96111.69
2023-02-11T14:23:54.633Z,96104.22
2023-02-11T14:26:21.324Z,96118.53
2023-02-11T14:29:01.699Z,96114.09
2023-02-11T14:31:42.432Z,96116.72
2023-02-11T14:34:54.891Z,96110.41
2023-02-11T14:37:55.850Z,96122.63
2023-02-11T14:40:34.831Z,96112.59
2023-02-11T14:43:29.530Z,96114.66
2023-02-11T14:45:58.356Z,96106.75
2023-02-11T14:48:32.154Z,96103.94
2023-02-11T14:51:08.213Z,96113.28
2023-02-11T14:53:36.602Z,96114.00
2023-02-11T14:56:03.934Z,96117.56
2023-02-11T14:58:34.493Z,96121.56
2023-02-11T15:01:10.599Z,96128.34
2023-02-11T15:03:49.232Z,96120.34
2023-02-11T15:06:38.713Z,96125.25
2023-02-11T15:09:20.148Z,96113.94
2023-02-11T15:11:50.142Z,96111.94
2023-02-11T15:14:25.758Z,96111.25
2023-02-11T15:16:55.756Z,96123.50
2023-02-11T15:19:34.201Z,96125.88
2023-02-11T15:22:04.779Z,96121.28
2023-02-11T15:24:35.202Z,96122.53
2023-02-11T15:27:08.170Z,96123.63
2023-02-11T15:29:37.290Z,96100.75
2023-02-11T15:32:19.620Z,96107.97
2023-02-11T15:34:48.259Z,96133.22
2023-02-11T15:37:29.788Z,96128.47
2023-02-11T15:40:15.889Z,96125.97
2023-02-11T15:43:06.646Z,96124.16
2023-02-11T15:45:51.673Z,96127.03
2023-02-11T15:48:34.525Z,96125.00
2023-02-11T15:51:11.496Z,96124.34
2023-02-11T15:53:43.096Z,96128.53
2023-02-11T15:56:45.156Z,96133.34
2023-02-11T15:59:20.679Z,96134.41
2023-02-11T16:01:48.800Z,96131.41
2023-02-11T16:04:25.775Z,96141.50
2023-02-11T16:06:54.654Z,96138.06
2023-02-11T16:09:36.440Z,96155.66
2023-02-11T16:12:23.055Z,96141.19
2023-02-11T16:14:49.830Z,96155.72
2023-02-11T16:17:19.489Z,96157.00
2023-02-11T16:19:49.162Z,96174.63
2023-02-11T16:22:20.858Z,96156.38
2023-02-11T16:24:50.061Z,96169.75
2023-02-11T16:27:30.582Z,96163.16
2023-02-11T16:29:58.894Z,96161.81
2023-02-11T16:32:30.783Z,96181.91
2023-02-11T16:35:00.895Z,96171.47
2023-02-11T16:37:27.879Z,96180.59
2023-02-11T16:39:56.553Z,96174.31
2023-02-11T16:42:23.598Z,96166.44
2023-02-11T16:44:50.390Z,96177.38
2023-02-11T16:47:23.928Z,96190.59
2023-02-11T16:49:51.127Z,96201.19
2023-02-11T16:52:18.970Z,96212.09
2023-02-11T16:54:45.922Z,96195.84
2023-02-11T16:57:28.771Z,96208.59
2023-02-11T16:59:57.031Z,96216.06
2023-02-11T17:02:31.811Z,96218.59
2023-02-11T17:05:01.246Z,96206.75
2023-02-11T17:07:29.132Z,96229.50
2023-02-11T17:09:56.598Z,96251.78
2023-02-11T17:12:26.630Z,96255.47
2023-02-11T17:14:54.385Z,96244.22
2023-02-11T17:17:23.739Z,96239.13
2023-02-11T17:19:51.257Z,96255.59
2023-02-11T17:22:18.824Z,96252.81
2023-02-11T17:24:45.655Z,96229.78
2023-02-11T17:27:13.087Z,96264.06
2023-02-11T17:29:39.847Z,96240.91
2023-02-11T17:32:06.790Z,96252.38
2023-02-11T17:34:33.615Z,96257.63
2023-02-11T17:37:01.581Z,96256.84
2023-02-11T17:39:28.324Z,96265.75
2023-02-11T17:41:55.101Z,96254.69
2023-02-11T17:44:21.838Z,96269.88
2023-02-11T17:46:48.770Z,96250.69
2023-02-11T17:49:16.458Z,96271.22
2023-02-11T17:51:43.614Z,96261.88
2023-02-11T17:54:18.265Z,96285.53
2023-02-11T17:56:46.308Z,96276.31
2023-02-11T17:59:14.430Z,96290.06
2023-02-11T18:01:42.840Z,96299.06
2023-02-11T18:04:15.381Z,96299.25
2023-02-11T18:06:42.347Z,96292.88
2023-02-11T18:09:09.247Z,96279.56
2023-02-11T18:11:37.869Z,96295.09
2023-02-11T18:14:07.894Z,96272.72
2023-02-11T18:16:36.684Z,96288.00
2023-02-11T18:19:04.084Z,96284.81
2023-02-11T18:21:30.933Z,96313.81
2023-02-11T18:23:58.010Z,96299.16
2023-02-11T18:26:26.389Z,96304.56
2023-02-11T18:28:53.285Z,96306.91
2023-02-11T18:31:22.047Z,96278.34
2023-02-11T18:33:49.109Z,96301.03
2023-02-11T18:36:17.081Z,96319.25
2023-02-11T18:38:47.164Z,96302.63
2023-02-11T18:41:14.580Z,96320.41
2023-02-11T18:43:41.349Z,96319.16
2023-02-11T18:46:11.862Z,96318.47
2023-02-11T18:48:39.380Z,96332.34
2023-02-11T18:51:12.453Z,96316.91
2023-02-11T18:53:39.370Z,96341.47
2023-02-11T18:56:09.208Z,96330.69
2023-02-11T18:58:37.712Z,96323.91
2023-02-11T19:01:27.573Z,96338.34
2023-02-11T19:03:57.517Z,96339.44
2023-02-11T19:06:30.220Z,96349.09
2023-02-11T19:09:00.746Z,96351.09
2023-02-11T19:11:49.013Z,96350.59
2023-02-11T19:14:22.802Z,96345.53
2023-02-11T19:16:51.738Z,96354.13
2023-02-11T19:19:19.545Z,96353.63
2023-02-11T19:21:47.638Z,96339.63
2023-02-11T19:24:17.297Z,96349.72
2023-02-11T19:26:44.047Z,96332.13
2023-02-11T19:29:11.154Z,96346.47
2023-02-11T19:31:38.461Z,96346.41
2023-02-11T19:34:06.277Z,96351.66
2023-02-11T19:36:34.043Z,96354.31
2023-02-11T19:39:02.269Z,96346.88
2023-02-11T19:41:30.417Z,96360.63
2023-02-11T19:43:57.177Z,96353.09
2023-02-11T19:46:26.406Z,96353.75
2023-02-11T19:48:53.807Z,96359.91
2023-02-11T19:51:21.665Z,96355.94
2023-02-11T19:53:49.096Z,96368.75
2023-02-11T19:56:16.170Z,96349.34
2023-02-11T19:58:43.459Z,96349.47
2023-02-11T20:01:17.408Z,96354.38
2023-02-11T20:03:44.335Z,96351.16
2023-02-11T20:06:17.311Z,96348.75
2023-02-11T20:08:44.744Z,96350.78
2023-02-11T20:11:17.590Z,96351.75
2023-02-11T20:13:44.666Z,96346.75
2023-02-11T20:16:16.747Z,96330.06
2023-02-11T20:18:45.498Z,96344.25
2023-02-11T20:21:24.838Z,96347.91
2023-02-11T20:23:52.459Z,96350.00
2023-02-11T20:26:23.741Z,96353.59
2023-02-11T20:28:52.301Z,96352.84
2023-02-11T20:31:20.530Z,96344.03
2023-02-11T20:33:48.647Z,96336.63
2023-02-11T20:36:19.958Z,96356.06
2023-02-11T20:38:47.829Z,96352.69
2023-02-11T20:41:22.799Z,96346.31
2023-02-11T20:43:55.496Z,96329.38
2023-02-11T20:46:28.873Z,96349.69
2023-02-11T20:48:57.286Z,96359.41
2023-02-11T20:51:31.751Z,96355.34
2023-02-11T20:53:59.427Z,96348.53
2023-02-11T20:56:37.191Z,96363.19
2023-02-11T20:59:05.223Z,96364.16
2023-02-11T21:01:41.755Z,96360.66
2023-02-11T21:04:20.147Z,96362.63
2023-02-11T21:06:52.336Z,96349.22
2023-02-11T21:09:23.180Z,96344.19
2023-02-11T21:11:51.748Z,96355.06
2023-02-11T21:14:20.113Z,96358.69
2023-02-11T21:16:48.192Z,96371.41
2023-02-11T21:19:15.889Z,96369.91
2023-02-11T21:21:42.964Z,96357.94
2023-02-11T21:24:10.761Z,96375.81
2023-02-11T21:26:38.413Z,96365.69
2023-02-11T21:29:07.678Z,96381.69
2023-02-11T21:31:35.694Z,96371.59
2023-02-11T21:34:03.297Z,96393.56
2023-02-11T21:36:30.859Z,96386.03
2023-02-11T21:38:57.979Z,96385.81
2023-02-11T21:41:25.059Z,96372.44
2023-02-11T21:43:52.902Z,96381.69
2023-02-11T21:46:20.676Z,96394.44
2023-02-11T21:48:47.949Z,96382.19
2023-02-11T21:51:26.359Z,96384.00
2023-02-11T21:53:59.743Z,96391.81
2023-02-11T21:56:28.286Z,96377.13
2023-02-11T21:58:58.086Z,96389.66
2023-02-11T22:01:29.071Z,96367.66
2023-02-11T22:03:56.431Z,96386.66
2023-02-11T22:06:30.915Z,96366.78
2023-02-11T22:08:58.460Z,96371.13
2023-02-11T22:11:25.280Z,96373.56
2023-02-11T22:13:56.544Z,96372.69
2023-02-11T22:16:24.183Z,96367.66
2023-02-11T22:18:51.604Z,96387.03
2023-02-11T22:21:22.661Z,96384.34
2023-02-11T22:23:50.221Z,96393.50
2023-02-11T22:26:21.237Z,96408.53
2023-02-11T22:28:48.724Z,96406.00
2023-02-11T22:31:24.569Z,96406.00
2023-02-11T22:33:51.854Z,96394.81
2023-02-11T22:36:26.309Z,96389.03
2023-02-11T22:38:54.446Z,96391.47
2023-02-11T22:41:22.624Z,96377.81
2023-02-11T22:43:49.440Z,96389.53
2023-02-11T22:46:19.251Z,96397.88
2023-02-11T22:48:47.633Z,96394.31
2023-02-11T22:51:22.099Z,96401.13
2023-02-11T22:53:54.385Z,96397.50
2023-02-11T22:56:21.850Z,96392.34
2023-02-11T22:58:48.922Z,96402.38
2023-02-11T23:01:16.410Z,96403.97
2023-02-11T23:03:43.325Z,96388.81
2023-02-11T23:06:11.799Z,96392.19
2023-02-11T23:08:41.170Z,96400.34
2023-02-11T23:11:14.568Z,96419.72
2023-02-11T23:13:42.468Z,96409.34
2023-02-11T23:16:14.672Z,96403.06
2023-02-11T23:18:43.739Z,96397.88
2023-02-11T23:21:31.160Z,96402.16
2023-02-11T23:24:02.127Z,96403.78
2023-02-11T23:26:29.753Z,96389.34
2023-02-11T23:28:59.596Z,96381.25
2023-02-11T23:31:31.226Z,96400.44
2023-02-11T23:33:58.158Z,96394.75
2023-02-11T23:36:25.004Z,96390.69
2023-02-11T23:38:52.294Z,96402.47
2023-02-11T23:41:20.317Z,96403.81
2023-02-11T23:43:53.323Z,96400.44
2023-02-11T23:46:22.107Z,96392.69
2023-02-11T23:48:50.123Z,96398.22
2023-02-11T23:51:17.667Z,96388.97
2023-02-11T23:53:46.003Z,96386.31
2023-02-11T23:56:20.967Z,96381.13
2023-02-11T23:58:52.651Z,96380.72
